createdAt,value
2018-08-22T00:00:28.760Z,0.00
2018-08-22T00:01:28.714Z,0.00
2018-08-22T00:02:28.564Z,0.00
2018-08-22T00:03:28.463Z,0.00
2018-08-22T00:04:28.372Z,0.00
2018-08-22T00:05:28.267Z,0.00
2018-08-22T00:06:28.165Z,0.00
2018-08-22T00:07:28.073Z,0.00
2018-08-22T00:08:27.970Z,0.00
2018-08-22T00:09:27.880Z,0.00
2018-08-22T00:10:27.776Z,0.00
2018-08-22T00:11:27.672Z,0.00
2018-08-22T00:12:27.584Z,0.00
2018-08-22T00:13:27.479Z,0.00
2018-08-22T00:14:27.388Z,0.00
2018-08-22T00:15:27.286Z,0.00
2018-08-22T00:16:27.181Z,0.00
2018-08-22T00:17:27.102Z,0.00
2018-08-22T00:18:26.986Z,0.00
2018-08-22T00:19:26.884Z,0.00
2018-08-22T00:20:26.792Z,0.00
2018-08-22T00:21:26.690Z,0.00
2018-08-22T00:22:26.631Z,0.00
2018-08-22T00:23:26.495Z,0.00
2018-08-22T00:24:26.392Z,0.00
2018-08-22T00:25:26.309Z,0.00
2018-08-22T00:26:26.198Z,0.00
2018-08-22T00:27:26.106Z,0.00
2018-08-22T00:28:26.006Z,0.00
2018-08-22T00:29:25.900Z,0.00
2018-08-22T00:30:25.810Z,0.00
2018-08-22T00:31:25.705Z,0.00
2018-08-22T00:32:25.615Z,0.00
2018-08-22T00:33:25.512Z,0.00
2018-08-22T00:34:25.407Z,0.00
2018-08-22T00:35:25.318Z,0.00
2018-08-22T00:36:25.216Z,0.00
2018-08-22T00:37:25.113Z,0.00
2018-08-22T00:38:25.019Z,0.00
2018-08-22T00:39:25.216Z,0.00
2018-08-22T00:40:24.826Z,0.00
2018-08-22T00:41:24.723Z,0.00
2018-08-22T00:42:24.619Z,0.00
2018-08-22T00:43:24.527Z,0.00
2018-08-22T00:44:24.424Z,0.00
2018-08-22T00:45:24.335Z,0.00
2018-08-22T00:46:24.239Z,0.00
2018-08-22T00:47:24.128Z,0.00
2018-08-22T00:48:24.036Z,0.00
2018-08-22T00:49:23.933Z,0.00
2018-08-22T00:50:23.831Z,0.00
2018-08-22T00:51:23.740Z,0.00
2018-08-22T00:52:23.637Z,0.00
2018-08-22T00:53:23.558Z,0.00
2018-08-22T00:54:23.442Z,0.00
2018-08-22T00:55:23.340Z,0.00
2018-08-22T00:56:23.249Z,0.00
2018-08-22T00:57:23.156Z,0.00
2018-08-22T00:58:23.054Z,0.00
2018-08-22T00:59:22.951Z,0.00
2018-08-22T01:00:22.847Z,0.00
2018-08-22T01:01:22.757Z,0.00
2018-08-22T01:02:22.654Z,0.00
2018-08-22T01:03:22.562Z,0.00
2018-08-22T01:04:22.459Z,0.00
2018-08-22T01:05:22.355Z,0.00
2018-08-22T01:06:22.265Z,0.00
2018-08-22T01:07:22.163Z,0.00
2018-08-22T01:08:22.060Z,0.00
2018-08-22T01:09:21.968Z,0.00
2018-08-22T01:10:21.864Z,0.00
2018-08-22T01:11:21.774Z,0.00
2018-08-22T01:12:21.672Z,0.00
2018-08-22T01:13:21.566Z,0.00
2018-08-22T01:14:21.476Z,0.00
2018-08-22T01:15:21.385Z,0.00
2018-08-22T01:16:21.270Z,0.00
2018-08-22T01:17:21.179Z,0.00
2018-08-22T01:18:21.076Z,0.00
2018-08-22T01:19:20.985Z,0.00
2018-08-22T01:20:20.882Z,0.00
2018-08-22T01:21:20.778Z,0.00
2018-08-22T01:22:20.687Z,0.00
2018-08-22T01:23:20.584Z,0.00
2018-08-22T01:24:20.482Z,0.00
2018-08-22T01:25:20.389Z,0.00
2018-08-22T01:26:20.286Z,0.00
2018-08-22T01:27:20.196Z,0.00
2018-08-22T01:28:20.093Z,0.00
2018-08-22T01:29:19.990Z,0.00
2018-08-22T01:30:19.899Z,0.00
2018-08-22T01:31:19.795Z,0.00
2018-08-22T01:32:19.694Z,0.00
2018-08-22T01:33:19.601Z,0.00
2018-08-22T01:34:19.499Z,0.00
2018-08-22T01:35:19.406Z,0.00
2018-08-22T01:36:19.303Z,0.00
2018-08-22T01:37:19.201Z,0.00
2018-08-22T01:38:19.110Z,0.00
2018-08-22T01:39:19.008Z,0.00
2018-08-22T01:40:18.914Z,0.00
2018-08-22T01:41:18.812Z,0.00
2018-08-22T01:42:18.709Z,0.00
2018-08-22T01:43:18.622Z,0.00
2018-08-22T01:44:18.815Z,0.00
2018-08-22T01:45:18.413Z,0.00
2018-08-22T01:46:18.320Z,0.00
2018-08-22T01:47:18.217Z,0.00
2018-08-22T01:48:18.118Z,0.00
2018-08-22T01:49:18.023Z,0.00
2018-08-22T01:50:17.921Z,0.00
2018-08-22T01:51:17.828Z,0.00
2018-08-22T01:52:17.725Z,0.00
2018-08-22T01:53:17.622Z,0.00
2018-08-22T01:54:17.531Z,0.00
2018-08-22T01:55:17.429Z,0.00
2018-08-22T01:56:17.337Z,0.00
2018-08-22T01:57:17.237Z,0.00
2018-08-22T01:58:17.131Z,0.00
2018-08-22T01:59:17.040Z,0.00
2018-08-22T02:00:16.937Z,0.00
2018-08-22T02:01:16.834Z,0.00
2018-08-22T02:02:16.743Z,0.00
2018-08-22T02:03:16.639Z,0.00
2018-08-22T02:04:16.537Z,0.00
2018-08-22T02:05:16.447Z,0.00
2018-08-22T02:06:16.342Z,0.00
2018-08-22T02:07:16.264Z,0.00
2018-08-22T02:08:16.147Z,0.00
2018-08-22T02:09:16.043Z,0.00
2018-08-22T02:10:15.954Z,0.00
2018-08-22T02:11:15.851Z,0.00
2018-08-22T02:12:15.749Z,0.00
2018-08-22T02:13:15.656Z,0.00
2018-08-22T02:14:15.552Z,0.00
2018-08-22T02:15:15.462Z,0.00
2018-08-22T02:16:15.358Z,0.00
2018-08-22T02:17:15.256Z,0.00
2018-08-22T02:18:15.165Z,0.00
2018-08-22T02:19:15.060Z,0.00
2018-08-22T02:20:14.958Z,0.00
2018-08-22T02:21:14.872Z,0.00
2018-08-22T02:22:14.764Z,0.00
2018-08-22T02:23:14.673Z,0.00
2018-08-22T02:24:14.570Z,0.00
2018-08-22T02:25:14.469Z,0.00
2018-08-22T02:26:14.376Z,0.00
2018-08-22T02:27:14.272Z,0.00
2018-08-22T02:28:14.169Z,0.00
2018-08-22T02:29:14.077Z,0.00
2018-08-22T02:30:13.976Z,0.00
2018-08-22T02:31:13.874Z,0.00
2018-08-22T02:32:13.782Z,0.00
2018-08-22T02:33:13.678Z,0.00
2018-08-22T02:34:13.825Z,0.00
2018-08-22T02:35:13.484Z,0.00
2018-08-22T02:36:13.380Z,0.00
2018-08-22T02:37:13.290Z,0.00
2018-08-22T02:38:13.189Z,0.00
2018-08-22T02:39:13.083Z,0.00
2018-08-22T02:40:12.991Z,0.00
2018-08-22T02:41:12.888Z,0.00
2018-08-22T02:42:12.784Z,0.00
2018-08-22T02:43:12.694Z,0.00
2018-08-22T02:44:12.591Z,0.00
2018-08-22T02:45:12.489Z,0.00
2018-08-22T02:46:12.396Z,0.00
2018-08-22T02:47:12.295Z,0.00
2018-08-22T02:48:12.192Z,0.00
2018-08-22T02:49:12.100Z,0.00
2018-08-22T02:50:11.997Z,0.00
2018-08-22T02:51:11.918Z,0.00
2018-08-22T02:52:11.803Z,0.00
2018-08-22T02:53:11.698Z,0.00
2018-08-22T02:54:11.608Z,0.00
2018-08-22T02:55:11.505Z,0.00
2018-08-22T02:56:11.403Z,0.00
2018-08-22T02:57:11.310Z,0.00
2018-08-22T02:58:11.206Z,0.00
2018-08-22T02:59:11.104Z,0.00
2018-08-22T03:00:11.014Z,0.00
2018-08-22T03:01:10.910Z,0.00
2018-08-22T03:02:10.808Z,0.00
2018-08-22T03:03:10.715Z,0.00
2018-08-22T03:04:10.612Z,0.00
2018-08-22T03:05:10.510Z,0.00
2018-08-22T03:06:10.419Z,0.00
2018-08-22T03:07:10.315Z,0.00
2018-08-22T03:08:10.224Z,0.00
2018-08-22T03:09:10.120Z,0.00
2018-08-22T03:10:10.017Z,0.00
2018-08-22T03:11:09.927Z,0.00
2018-08-22T03:12:09.824Z,0.00
2018-08-22T03:13:09.719Z,0.00
2018-08-22T03:14:09.879Z,0.00
2018-08-22T03:15:09.526Z,0.00
2018-08-22T03:16:09.422Z,0.00
2018-08-22T03:17:09.335Z,0.00
2018-08-22T03:18:09.231Z,0.00
2018-08-22T03:19:09.126Z,0.00
2018-08-22T03:20:09.040Z,0.00
2018-08-22T03:21:08.931Z,0.00
2018-08-22T03:22:08.843Z,0.00
2018-08-22T03:23:08.740Z,0.00
2018-08-22T03:24:08.634Z,0.00
2018-08-22T03:25:08.532Z,0.00
2018-08-22T03:26:08.472Z,4.00
2018-08-22T03:27:08.336Z,4.00
2018-08-22T03:28:08.239Z,0.00
2018-08-22T03:29:08.142Z,4.00
2018-08-22T03:30:08.039Z,4.00
2018-08-22T03:31:07.947Z,4.00
2018-08-22T03:32:07.846Z,4.00
2018-08-22T03:33:07.741Z,8.00
2018-08-22T03:34:07.651Z,8.00
2018-08-22T03:35:07.547Z,8.00
2018-08-22T03:36:07.444Z,8.00
2018-08-22T03:37:07.352Z,8.00
2018-08-22T03:38:07.249Z,12.00
2018-08-22T03:39:07.146Z,12.00
2018-08-22T03:40:07.056Z,16.00
2018-08-22T03:41:06.952Z,20.00
2018-08-22T03:42:06.850Z,24.00
2018-08-22T03:43:06.760Z,28.00
2018-08-22T03:44:06.955Z,32.00
2018-08-22T03:45:06.551Z,36.00
2018-08-22T03:46:06.461Z,40.00
2018-08-22T03:47:06.358Z,44.00
2018-08-22T03:48:06.255Z,52.00
2018-08-22T03:49:06.163Z,60.00
2018-08-22T03:50:06.062Z,68.00
2018-08-22T03:51:05.957Z,76.00
2018-08-22T03:52:05.866Z,84.00
2018-08-22T03:53:05.764Z,96.00
2018-08-22T03:54:05.661Z,108.00
2018-08-22T03:55:05.570Z,116.00
2018-08-22T03:56:05.466Z,132.00
2018-08-22T03:57:05.362Z,140.00
2018-08-22T03:58:05.272Z,156.00
2018-08-22T03:59:05.169Z,168.00
2018-08-22T04:00:05.065Z,180.00
2018-08-22T04:01:04.973Z,200.00
2018-08-22T04:02:04.869Z,216.00
2018-08-22T04:03:04.768Z,228.00
2018-08-22T04:04:04.682Z,252.00
2018-08-22T04:05:04.574Z,272.00
2018-08-22T04:06:04.470Z,292.00
2018-08-22T04:07:04.380Z,312.00
2018-08-22T04:08:04.275Z,332.00
2018-08-22T04:09:04.173Z,356.00
2018-08-22T04:10:04.082Z,380.00
2018-08-22T04:11:03.978Z,404.00
2018-08-22T04:12:03.889Z,432.00
2018-08-22T04:13:03.783Z,456.00
2018-08-22T04:14:03.680Z,484.00
2018-08-22T04:15:03.592Z,516.00
2018-08-22T04:16:03.488Z,544.00
2018-08-22T04:17:03.384Z,580.00
2018-08-22T04:18:03.292Z,612.00
2018-08-22T04:19:03.189Z,652.00
2018-08-22T04:20:03.085Z,700.00
2018-08-22T04:21:02.994Z,744.00
2018-08-22T04:22:02.892Z,796.00
2018-08-22T04:23:02.788Z,848.00
2018-08-22T04:24:02.697Z,896.00
2018-08-22T04:25:02.594Z,956.00
2018-08-22T04:26:02.492Z,1016.00
2018-08-22T04:27:02.401Z,1072.00
2018-08-22T04:28:02.297Z,1124.00
2018-08-22T04:29:02.194Z,1180.00
2018-08-22T04:30:02.103Z,1244.00
2018-08-22T04:31:02.033Z,1308.00
2018-08-22T04:32:01.898Z,1372.00
2018-08-22T04:33:01.806Z,1436.00
2018-08-22T04:34:02.003Z,1504.00
2018-08-22T04:35:01.625Z,1568.00
2018-08-22T04:36:01.508Z,1636.00
2018-08-22T04:37:01.404Z,1692.00
2018-08-22T04:38:01.314Z,1748.00
2018-08-22T04:39:01.213Z,1808.00
2018-08-22T04:40:01.119Z,1872.00
2018-08-22T04:41:01.015Z,1944.00
2018-08-22T04:42:00.914Z,2000.00
2018-08-22T04:43:00.823Z,2060.00
2018-08-22T04:44:00.719Z,2132.00
2018-08-22T04:45:00.628Z,2208.00
2018-08-22T04:46:00.525Z,2288.00
2018-08-22T04:47:00.434Z,2360.00
2018-08-22T04:48:00.332Z,2428.00
2018-08-22T04:49:00.240Z,2500.00
2018-08-22T04:50:00.137Z,2568.00
2018-08-22T04:51:00.037Z,2644.00
2018-08-22T04:51:59.942Z,2704.00
2018-08-22T04:52:59.839Z,2780.00
2018-08-22T04:53:59.748Z,2848.00
2018-08-22T04:54:59.645Z,2920.00
2018-08-22T04:55:59.555Z,2984.00
2018-08-22T04:56:59.454Z,3056.00
2018-08-22T04:57:59.360Z,3124.00
2018-08-22T04:58:59.257Z,3196.00
2018-08-22T04:59:59.166Z,3252.00
2018-08-22T05:00:59.074Z,3320.00
2018-08-22T05:01:58.971Z,3376.00
2018-08-22T05:02:58.870Z,3428.00
2018-08-22T05:03:58.778Z,3484.00
2018-08-22T05:04:58.686Z,3540.00
2018-08-22T05:05:58.596Z,3596.00
2018-08-22T05:06:58.493Z,3648.00
2018-08-22T05:07:58.389Z,3704.00
2018-08-22T05:08:58.299Z,3792.00
2018-08-22T05:09:58.208Z,3852.00
2018-08-22T05:10:58.105Z,3904.00
2018-08-22T05:11:58.013Z,3972.00
2018-08-22T05:12:57.910Z,4012.00
2018-08-22T05:13:57.820Z,4064.00
2018-08-22T05:14:57.717Z,4148.00
2018-08-22T05:15:57.624Z,4220.00
2018-08-22T05:16:57.535Z,4280.00
2018-08-22T05:17:57.434Z,4360.00
2018-08-22T05:18:57.341Z,4440.00
2018-08-22T05:19:57.239Z,4492.00
2018-08-22T05:20:57.148Z,4552.00
2018-08-22T05:21:57.068Z,4620.00
2018-08-22T05:22:56.953Z,4668.00
2018-08-22T05:23:57.112Z,4740.00
2018-08-22T05:24:56.770Z,4796.00
2018-08-22T05:25:56.668Z,4836.00
2018-08-22T05:26:56.577Z,4880.00
2018-08-22T05:27:56.486Z,4932.00
2018-08-22T05:28:56.382Z,4996.00
2018-08-22T05:29:56.293Z,5048.00
2018-08-22T05:30:56.200Z,5104.00
2018-08-22T05:31:56.109Z,5160.00
2018-08-22T05:32:56.007Z,5228.00
2018-08-22T05:33:55.915Z,5284.00
2018-08-22T05:34:55.817Z,5336.00
2018-08-22T05:35:55.722Z,5396.00
2018-08-22T05:36:55.630Z,5484.00
2018-08-22T05:37:55.540Z,5540.00
2018-08-22T05:38:55.687Z,5612.00
2018-08-22T05:39:55.345Z,5652.00
2018-08-22T05:40:55.256Z,5712.00
2018-08-22T05:41:55.155Z,5776.00
2018-08-22T05:42:55.061Z,5864.00
2018-08-22T05:43:54.970Z,5956.00
2018-08-22T05:44:54.880Z,6044.00
2018-08-22T05:45:54.775Z,6100.00
2018-08-22T05:46:54.685Z,6152.00
2018-08-22T05:47:54.595Z,6224.00
2018-08-22T05:48:54.506Z,6300.00
2018-08-22T05:49:54.401Z,6388.00
2018-08-22T05:50:54.313Z,6520.00
2018-08-22T05:51:54.220Z,6544.00
2018-08-22T05:52:54.128Z,6520.00
2018-08-22T05:53:54.025Z,6544.00
2018-08-22T05:54:53.934Z,6568.00
2018-08-22T05:55:53.843Z,6612.00
2018-08-22T05:56:53.753Z,6744.00
2018-08-22T05:57:53.662Z,6804.00
2018-08-22T05:58:53.573Z,6764.00
2018-08-22T05:59:53.468Z,6772.00
2018-08-22T06:00:53.376Z,6840.00
2018-08-22T06:01:53.292Z,6884.00
2018-08-22T06:02:53.207Z,6924.00
2018-08-22T06:03:53.092Z,6968.00
2018-08-22T06:04:53.001Z,7028.00
2018-08-22T06:05:52.910Z,7068.00
2018-08-22T06:06:52.822Z,7116.00
2018-08-22T06:07:52.728Z,7216.00
2018-08-22T06:08:52.638Z,7244.00
2018-08-22T06:09:52.547Z,7316.00
2018-08-22T06:10:52.444Z,7400.00
2018-08-22T06:11:52.353Z,7392.00
2018-08-22T06:12:52.262Z,7416.00
2018-08-22T06:13:52.172Z,7444.00
2018-08-22T06:14:52.080Z,7496.00
2018-08-22T06:15:51.996Z,7540.00
2018-08-22T06:16:51.900Z,7612.00
2018-08-22T06:17:51.808Z,7652.00
2018-08-22T06:18:51.716Z,7704.00
2018-08-22T06:19:51.614Z,7756.00
2018-08-22T06:20:51.524Z,7800.00
2018-08-22T06:21:51.433Z,7848.00
2018-08-22T06:22:51.342Z,7924.00
2018-08-22T06:23:51.251Z,7960.00
2018-08-22T06:24:51.160Z,8040.00
2018-08-22T06:25:51.069Z,8068.00
2018-08-22T06:26:50.979Z,8124.00
2018-08-22T06:27:50.888Z,8160.00
2018-08-22T06:28:50.797Z,8192.00
2018-08-22T06:29:50.711Z,8240.00
2018-08-22T06:30:50.619Z,8288.00
2018-08-22T06:31:50.523Z,8340.00
2018-08-22T06:32:50.480Z,8368.00
2018-08-22T06:33:50.343Z,8416.00
2018-08-22T06:34:50.242Z,8456.00
2018-08-22T06:35:50.149Z,8492.00
2018-08-22T06:36:50.059Z,8536.00
2018-08-22T06:37:49.969Z,8580.00
2018-08-22T06:38:50.127Z,8628.00
2018-08-22T06:39:49.789Z,8668.00
2018-08-22T06:40:49.694Z,8708.00
2018-08-22T06:41:49.605Z,8716.00
2018-08-22T06:42:49.513Z,8728.00
2018-08-22T06:43:49.422Z,8744.00
2018-08-22T06:44:49.331Z,8780.00
2018-08-22T06:45:49.242Z,8804.00
2018-08-22T06:46:49.150Z,8860.00
2018-08-22T06:47:49.060Z,8964.00
2018-08-22T06:48:48.968Z,8996.00
2018-08-22T06:49:48.878Z,9064.00
2018-08-22T06:50:48.787Z,9096.00
2018-08-22T06:51:48.698Z,9132.00
2018-08-22T06:52:48.605Z,9188.00
2018-08-22T06:53:48.515Z,9268.00
2018-08-22T06:54:48.424Z,9312.00
2018-08-22T06:55:48.333Z,9384.00
2018-08-22T06:56:48.243Z,9388.00
2018-08-22T06:57:48.163Z,9484.00
2018-08-22T06:58:48.072Z,9548.00
2018-08-22T06:59:47.983Z,9648.00
2018-08-22T07:00:47.892Z,9716.00
2018-08-22T07:01:47.800Z,9760.00
2018-08-22T07:02:47.710Z,9844.00
2018-08-22T07:03:47.618Z,9952.00
2018-08-22T07:04:47.529Z,10068.00
2018-08-22T07:05:47.450Z,10140.00
2018-08-22T07:06:47.347Z,10252.00
2018-08-22T07:07:47.256Z,10348.00
2018-08-22T07:08:47.165Z,10392.00
2018-08-22T07:09:47.075Z,10424.00
2018-08-22T07:10:46.996Z,10540.00
2018-08-22T07:11:46.905Z,10644.00
2018-08-22T07:12:46.814Z,10800.00
2018-08-22T07:13:46.725Z,10908.00
2018-08-22T07:14:46.646Z,10988.00
2018-08-22T07:15:46.542Z,11048.00
2018-08-22T07:16:46.451Z,11164.00
2018-08-22T07:17:46.361Z,11212.00
2018-08-22T07:18:46.271Z,11216.00
2018-08-22T07:19:46.191Z,11100.00
2018-08-22T07:20:46.110Z,10896.00
2018-08-22T07:21:46.010Z,10036.00
2018-08-22T07:22:45.920Z,8448.00
2018-08-22T07:23:45.841Z,7052.00
2018-08-22T07:24:45.738Z,6500.00
2018-08-22T07:25:45.646Z,6304.00
2018-08-22T07:26:45.574Z,6208.00
2018-08-22T07:27:45.478Z,6180.00
2018-08-22T07:28:45.386Z,6156.00
2018-08-22T07:29:45.296Z,6072.00
2018-08-22T07:30:45.205Z,5948.00
2018-08-22T07:31:45.115Z,5784.00
2018-08-22T07:32:45.023Z,5636.00
2018-08-22T07:33:44.933Z,5524.00
2018-08-22T07:34:44.842Z,5452.00
2018-08-22T07:35:44.804Z,5408.00
2018-08-22T07:36:44.659Z,5384.00
2018-08-22T07:37:44.574Z,5364.00
2018-08-22T07:38:44.479Z,5360.00
2018-08-22T07:39:44.387Z,5372.00
2018-08-22T07:40:44.296Z,5392.00
2018-08-22T07:41:44.206Z,5416.00
2018-08-22T07:42:44.115Z,5444.00
2018-08-22T07:43:44.025Z,5472.00
2018-08-22T07:44:43.932Z,5496.00
2018-08-22T07:45:43.843Z,5524.00
2018-08-22T07:46:43.753Z,5556.00
2018-08-22T07:47:43.651Z,5588.00
2018-08-22T07:48:43.558Z,5620.00
2018-08-22T07:49:43.465Z,5636.00
2018-08-22T07:50:43.377Z,5652.00
2018-08-22T07:51:43.285Z,5668.00
2018-08-22T07:52:43.194Z,5692.00
2018-08-22T07:53:43.106Z,5708.00
2018-08-22T07:54:43.001Z,5728.00
2018-08-22T07:55:42.911Z,5752.00
2018-08-22T07:56:42.819Z,5780.00
2018-08-22T07:57:42.728Z,5800.00
2018-08-22T07:58:42.639Z,5824.00
2018-08-22T07:59:42.547Z,5852.00
2018-08-22T08:00:42.443Z,5864.00
2018-08-22T08:01:42.386Z,5884.00
2018-08-22T08:02:42.283Z,5896.00
2018-08-22T08:03:42.169Z,5908.00
2018-08-22T08:04:42.079Z,5924.00
2018-08-22T08:05:41.988Z,5940.00
2018-08-22T08:06:41.888Z,5956.00
2018-08-22T08:07:41.795Z,5960.00
2018-08-22T08:08:41.801Z,5976.00
2018-08-22T08:09:41.613Z,5988.00
2018-08-22T08:10:41.521Z,6004.00
2018-08-22T08:11:41.420Z,6004.00
2018-08-22T08:12:41.329Z,6012.00
2018-08-22T08:13:41.239Z,6024.00
2018-08-22T08:14:41.147Z,6032.00
2018-08-22T08:15:41.094Z,6040.00
2018-08-22T08:16:40.956Z,6044.00
2018-08-22T08:17:40.865Z,6044.00
2018-08-22T08:18:41.019Z,6056.00
2018-08-22T08:19:40.680Z,6064.00
2018-08-22T08:20:40.588Z,6072.00
2018-08-22T08:21:40.486Z,6080.00
2018-08-22T08:22:40.395Z,6084.00
2018-08-22T08:23:40.303Z,6096.00
2018-08-22T08:24:40.214Z,6120.00
2018-08-22T08:25:40.123Z,6128.00
2018-08-22T08:26:40.032Z,6144.00
2018-08-22T08:27:39.929Z,6148.00
2018-08-22T08:28:39.836Z,6152.00
2018-08-22T08:29:39.747Z,6168.00
2018-08-22T08:30:39.729Z,6184.00
2018-08-22T08:31:39.565Z,6192.00
2018-08-22T08:32:39.462Z,6204.00
2018-08-22T08:33:39.371Z,6220.00
2018-08-22T08:34:39.280Z,6236.00
2018-08-22T08:35:39.209Z,6240.00
2018-08-22T08:36:39.092Z,6236.00
2018-08-22T08:37:38.995Z,6216.00
2018-08-22T08:38:38.905Z,6220.00
2018-08-22T08:39:38.813Z,6220.00
2018-08-22T08:40:38.722Z,6240.00
2018-08-22T08:41:38.707Z,6256.00
2018-08-22T08:42:38.530Z,6272.00
2018-08-22T08:43:38.437Z,6284.00
2018-08-22T08:44:38.348Z,6300.00
2018-08-22T08:45:38.255Z,6304.00
2018-08-22T08:46:38.165Z,6308.00
2018-08-22T08:47:38.063Z,6312.00
2018-08-22T08:48:37.972Z,6328.00
2018-08-22T08:49:38.009Z,6344.00
2018-08-22T08:50:37.789Z,6368.00
2018-08-22T08:51:37.687Z,6388.00
2018-08-22T08:52:37.595Z,6416.00
2018-08-22T08:53:37.503Z,6436.00
2018-08-22T08:54:37.415Z,6456.00
2018-08-22T08:55:37.322Z,6496.00
2018-08-22T08:56:37.219Z,6600.00
2018-08-22T08:57:37.130Z,6752.00
2018-08-22T08:58:37.037Z,6888.00
2018-08-22T08:59:36.959Z,6972.00
2018-08-22T09:00:36.848Z,7052.00
2018-08-22T09:01:36.752Z,7152.00
2018-08-22T09:02:36.663Z,7244.00
2018-08-22T09:03:36.579Z,7320.00
2018-08-22T09:04:36.482Z,7356.00
2018-08-22T09:05:36.380Z,7380.00
2018-08-22T09:06:36.316Z,7412.00
2018-08-22T09:07:36.195Z,7472.00
2018-08-22T09:08:36.106Z,7524.00
2018-08-22T09:09:36.014Z,7604.00
2018-08-22T09:10:35.947Z,7668.00
2018-08-22T09:11:35.820Z,7788.00
2018-08-22T09:12:35.730Z,7940.00
2018-08-22T09:13:35.651Z,8068.00
2018-08-22T09:14:35.536Z,8184.00
2018-08-22T09:15:35.483Z,10024.00
2018-08-22T09:16:35.353Z,10600.00
2018-08-22T09:17:35.265Z,7760.00
2018-08-22T09:18:35.160Z,7276.00
2018-08-22T09:19:35.069Z,7072.00
2018-08-22T09:20:34.978Z,6896.00
2018-08-22T09:21:34.930Z,6772.00
2018-08-22T09:22:34.797Z,6732.00
2018-08-22T09:23:34.693Z,6748.00
2018-08-22T09:24:34.601Z,6792.00
2018-08-22T09:25:34.512Z,6828.00
2018-08-22T09:26:34.424Z,6852.00
2018-08-22T09:27:34.330Z,6892.00
2018-08-22T09:28:34.252Z,6988.00
2018-08-22T09:29:34.184Z,7096.00
2018-08-22T09:30:34.045Z,7432.00
2018-08-22T09:31:33.954Z,10976.00
2018-08-22T09:32:33.863Z,15784.00
2018-08-22T09:33:33.801Z,12560.00
2018-08-22T09:34:33.705Z,12880.00
2018-08-22T09:35:33.637Z,28000.00
2018-08-22T09:36:33.487Z,52064.00
2018-08-22T09:37:33.397Z,62592.00
2018-08-22T09:38:33.305Z,65664.00
2018-08-22T09:39:33.225Z,65728.00
2018-08-22T09:40:33.184Z,64128.00
2018-08-22T09:41:33.021Z,62816.00
2018-08-22T09:42:32.930Z,62944.00
2018-08-22T09:43:32.853Z,64160.00
2018-08-22T09:44:32.748Z,63136.00
2018-08-22T09:45:32.657Z,60448.00
2018-08-22T09:46:32.635Z,56640.00
2018-08-22T09:47:32.477Z,54176.00
2018-08-22T09:48:32.399Z,53344.00
2018-08-22T09:49:32.306Z,52384.00
2018-08-22T09:50:32.215Z,52448.00
2018-08-22T09:51:32.125Z,51936.00
2018-08-22T09:52:32.033Z,51872.00
2018-08-22T09:53:31.944Z,52128.00
2018-08-22T09:54:31.874Z,52736.00
2018-08-22T09:55:31.774Z,51776.00
2018-08-22T09:56:31.683Z,51776.00
2018-08-22T09:57:31.605Z,52192.00
2018-08-22T09:58:31.561Z,52576.00
2018-08-22T09:59:31.424Z,52768.00
2018-08-22T10:00:31.348Z,52800.00
2018-08-22T10:01:31.275Z,52736.00
2018-08-22T10:02:31.164Z,53152.00
2018-08-22T10:03:31.087Z,49632.00
2018-08-22T10:04:30.994Z,53504.00
2018-08-22T10:05:30.929Z,53472.00
2018-08-22T10:06:30.898Z,53088.00
2018-08-22T10:07:30.794Z,53312.00
2018-08-22T10:08:30.658Z,54112.00
2018-08-22T10:09:30.617Z,58464.00
2018-08-22T10:10:30.488Z,62912.00
2018-08-22T10:11:30.409Z,64096.00
2018-08-22T10:12:30.330Z,64672.00
2018-08-22T10:13:30.239Z,65344.00
2018-08-22T10:14:30.161Z,65344.00
2018-08-22T10:15:30.094Z,65056.00
2018-08-22T10:16:30.016Z,65376.00
2018-08-22T10:17:29.915Z,64640.00
2018-08-22T10:18:29.824Z,65184.00
2018-08-22T10:19:29.764Z,65024.00
2018-08-22T10:20:29.667Z,64256.00
2018-08-22T10:21:29.578Z,63616.00
2018-08-22T10:22:29.497Z,63264.00
2018-08-22T10:23:29.420Z,63328.00
2018-08-22T10:24:29.329Z,63808.00
2018-08-22T10:25:29.250Z,64576.00
2018-08-22T10:26:29.211Z,63424.00
2018-08-22T10:27:29.093Z,63008.00
2018-08-22T10:28:29.004Z,63200.00
2018-08-22T10:29:28.925Z,62240.00
2018-08-22T10:30:28.847Z,62432.00
2018-08-22T10:31:28.756Z,63392.00
2018-08-22T10:32:28.676Z,65376.00
2018-08-22T10:33:28.599Z,90080.00
2018-08-22T10:39:28.121Z,93120.00
2018-08-22T10:40:28.026Z,76352.00
2018-08-22T10:44:27.771Z,37952.00
2018-08-22T10:46:27.546Z,40928.00
2018-08-22T10:47:27.453Z,42528.00
2018-08-22T10:48:27.395Z,47968.00
2018-08-22T10:49:27.284Z,51360.00
2018-08-22T10:50:27.216Z,51680.00
2018-08-22T10:51:27.116Z,53216.00
2018-08-22T10:52:27.041Z,50848.00
2018-08-22T10:53:26.958Z,51584.00
2018-08-22T10:54:26.868Z,61472.00
2018-08-22T10:55:26.795Z,67328.00
2018-08-22T10:56:26.699Z,69024.00
2018-08-22T10:57:26.620Z,66464.00
2018-08-22T10:58:26.779Z,56736.00
2018-08-22T10:59:26.452Z,45120.00
2018-08-22T11:00:26.359Z,30368.00
2018-08-22T11:01:26.281Z,29696.00
2018-08-22T11:02:26.192Z,32544.00
2018-08-22T11:03:26.101Z,30784.00
2018-08-22T11:04:26.021Z,26912.00
2018-08-22T11:05:25.933Z,20192.00
2018-08-22T11:06:25.852Z,17792.00
2018-08-22T11:07:25.761Z,16692.00
2018-08-22T11:08:25.672Z,14376.00
2018-08-22T11:09:25.592Z,11436.00
2018-08-22T11:10:25.501Z,9388.00
2018-08-22T11:11:25.411Z,6728.00
2018-08-22T11:12:25.332Z,6712.00
2018-08-22T11:13:25.241Z,6540.00
2018-08-22T11:14:25.151Z,6188.00
2018-08-22T11:15:25.059Z,6048.00
2018-08-22T11:16:24.981Z,5928.00
2018-08-22T11:17:24.892Z,5788.00
2018-08-22T11:18:24.799Z,5680.00
2018-08-22T11:19:24.709Z,5592.00
2018-08-22T11:20:24.617Z,5520.00
2018-08-22T11:21:24.530Z,5500.00
2018-08-22T11:22:24.497Z,5488.00
2018-08-22T11:23:24.361Z,5468.00
2018-08-22T11:24:24.270Z,5448.00
2018-08-22T11:25:24.176Z,5544.00
2018-08-22T11:26:24.086Z,5564.00
2018-08-22T11:27:23.994Z,5564.00
2018-08-22T11:28:23.904Z,5564.00
2018-08-22T11:29:23.813Z,5572.00
2018-08-22T11:30:23.725Z,5564.00
2018-08-22T11:31:23.632Z,5552.00
2018-08-22T11:32:23.553Z,5532.00
2018-08-22T11:33:23.463Z,5500.00
2018-08-22T11:34:23.377Z,5480.00
2018-08-22T11:35:23.282Z,5464.00
2018-08-22T11:36:23.203Z,5448.00
2018-08-22T11:37:23.100Z,5436.00
2018-08-22T11:38:23.007Z,5416.00
2018-08-22T11:39:22.919Z,5392.00
2018-08-22T11:40:22.827Z,5364.00
2018-08-22T11:41:22.739Z,5324.00
2018-08-22T11:42:22.652Z,5284.00
2018-08-22T11:43:22.554Z,5256.00
2018-08-22T11:44:22.463Z,5240.00
2018-08-22T11:45:22.374Z,5224.00
2018-08-22T11:46:22.283Z,5216.00
2018-08-22T11:47:22.192Z,5212.00
2018-08-22T11:48:22.100Z,5216.00
2018-08-22T11:49:22.010Z,5224.00
2018-08-22T11:50:21.921Z,5232.00
2018-08-22T11:51:21.829Z,5236.00
2018-08-22T11:52:21.736Z,5228.00
2018-08-22T11:53:21.647Z,5280.00
2018-08-22T11:54:21.555Z,5340.00
2018-08-22T11:55:21.467Z,5380.00
2018-08-22T11:56:21.374Z,5432.00
2018-08-22T11:57:21.283Z,5468.00
2018-08-22T11:58:21.192Z,5516.00
2018-08-22T11:59:21.103Z,5544.00
2018-08-22T12:00:21.010Z,5584.00
2018-08-22T12:01:20.922Z,5592.00
2018-08-22T12:02:20.829Z,5612.00
2018-08-22T12:03:20.739Z,5588.00
2018-08-22T12:04:20.652Z,5560.00
2018-08-22T12:05:20.557Z,5524.00
2018-08-22T12:06:20.465Z,5492.00
2018-08-22T12:07:20.376Z,5480.00
2018-08-22T12:08:20.296Z,5472.00
2018-08-22T12:09:20.194Z,5448.00
2018-08-22T12:10:20.102Z,5412.00
2018-08-22T12:11:20.012Z,5388.00
2018-08-22T12:12:19.923Z,5380.00
2018-08-22T12:13:19.833Z,5384.00
2018-08-22T12:14:19.739Z,5388.00
2018-08-22T12:15:19.649Z,5384.00
2018-08-22T12:16:19.559Z,5376.00
2018-08-22T12:17:19.468Z,5332.00
2018-08-22T12:18:19.377Z,5316.00
2018-08-22T12:19:19.276Z,5296.00
2018-08-22T12:20:19.212Z,5312.00
2018-08-22T12:21:19.104Z,5288.00
2018-08-22T12:22:19.012Z,5280.00
2018-08-22T12:23:18.920Z,5284.00
2018-08-22T12:24:18.820Z,5292.00
2018-08-22T12:25:18.728Z,5316.00
2018-08-22T12:26:18.638Z,5344.00
2018-08-22T12:27:18.552Z,5360.00
2018-08-22T12:28:18.456Z,5368.00
2018-08-22T12:29:18.365Z,5364.00
2018-08-22T12:30:18.275Z,5372.00
2018-08-22T12:31:18.183Z,5372.00
2018-08-22T12:32:18.094Z,5360.00